KSRC

Searcy Municipal Airport

Searcy, Arkansas, USA
METAR KSRC 201156Z AUTO 00000KT 10SM OVC021 05/M01 A3013 RMK AO2 SLP214 6//// 7//// T00501011 10050 20011 55006
Observed Flight Rules
Jan-20 @ 11:56 UTC (an hour ago) Marginal Visual Flight Rules
Wind Visibility Clouds
Calm 10 miles
  • Overcast at 2,100' AGL
Temperatures Readings
Current 5°C / 41°F
Dewpoint -1°C / 30°F
Humidity 66%
Altimeter 30.13" Hg
Pressure 1021.4 hPa
Elevation 80
METAR KSRC 201156Z AUTO 00000KT 10SM OVC021 05/M01 A3013 RMK AO2 SLP214 6//// 7//// T00501011 10050 20011 55006
Observed Flight Rules
Jan-20 @ 11:56 UTC
(an hour ago)
MVFR
Wind Visibility
Calm 10 miles
Clouds
  • Overcast at 2,100' AGL
Temperature Dewpoint
5°C / 41°F -1°C / 30°F
Humidity Altimeter Pressure
66% 30.13" Hg 1021.4 hPa